createdAt,value
2023-03-03T00:00:55.860Z,22.60
2023-03-03T00:01:55.919Z,22.80
2023-03-03T00:02:55.791Z,22.60
2023-03-03T00:03:55.765Z,22.80
2023-03-03T00:04:55.732Z,23.00
2023-03-03T00:05:55.703Z,23.80
2023-03-03T00:06:55.670Z,23.90
2023-03-03T00:07:55.640Z,23.90
2023-03-03T00:08:55.622Z,24.60
2023-03-03T00:09:55.587Z,24.40
2023-03-03T00:10:55.591Z,24.70
2023-03-03T00:11:55.516Z,24.80
2023-03-03T00:12:55.484Z,23.70
2023-03-03T00:13:55.456Z,24.80
2023-03-03T00:14:55.448Z,25.50
2023-03-03T00:15:55.408Z,26.30
2023-03-03T00:16:55.360Z,26.20
2023-03-03T00:17:55.345Z,26.10
2023-03-03T00:18:55.298Z,26.00
2023-03-03T00:19:55.277Z,26.60
2023-03-03T00:20:55.246Z,24.80
2023-03-03T00:21:55.208Z,27.20
2023-03-03T00:22:55.176Z,25.00
2023-03-03T00:23:55.170Z,25.90
2023-03-03T00:24:55.115Z,26.30
2023-03-03T00:25:55.087Z,26.40
2023-03-03T00:26:55.050Z,25.90
2023-03-03T00:27:55.023Z,25.30
2023-03-03T00:28:54.990Z,25.70
2023-03-03T00:29:54.968Z,25.60
2023-03-03T00:30:54.970Z,25.40
2023-03-03T00:31:54.922Z,25.60
2023-03-03T00:32:54.865Z,24.20
2023-03-03T00:33:54.980Z,24.40
2023-03-03T00:34:54.806Z,26.00
2023-03-03T00:35:54.832Z,25.40
2023-03-03T00:36:54.742Z,23.80
2023-03-03T00:37:54.713Z,24.60
2023-03-03T00:38:54.680Z,24.90
2023-03-03T00:39:54.651Z,24.90
2023-03-03T00:40:54.686Z,24.00
2023-03-03T00:41:54.593Z,25.40
2023-03-03T00:42:54.561Z,24.50
2023-03-03T00:43:54.536Z,24.40
2023-03-03T00:44:54.495Z,24.50
2023-03-03T00:45:54.555Z,25.00
2023-03-03T00:46:54.460Z,24.90
2023-03-03T00:47:54.402Z,24.50
2023-03-03T00:48:54.369Z,24.30
2023-03-03T00:49:54.367Z,23.30
2023-03-03T00:50:54.312Z,24.10
2023-03-03T00:51:54.288Z,23.80
2023-03-03T00:52:54.248Z,24.40
2023-03-03T00:53:54.214Z,25.70
2023-03-03T00:54:54.181Z,23.50
2023-03-03T00:55:54.164Z,24.20
2023-03-03T00:56:54.134Z,24.50
2023-03-03T00:57:54.118Z,24.30
2023-03-03T00:58:54.057Z,24.40
2023-03-03T00:59:54.026Z,25.40
2023-03-03T01:00:54.005Z,25.30
2023-03-03T01:01:53.996Z,23.90
2023-03-03T01:02:53.982Z,26.20
2023-03-03T01:03:53.921Z,25.70
2023-03-03T01:04:53.874Z,24.50
2023-03-03T01:05:53.845Z,25.90
2023-03-03T01:06:53.810Z,25.00
2023-03-03T01:07:53.786Z,23.90
2023-03-03T01:08:53.746Z,23.30
2023-03-03T01:09:53.721Z,23.70
2023-03-03T01:10:53.689Z,24.20
2023-03-03T01:11:53.660Z,24.30
2023-03-03T01:12:53.623Z,24.90
2023-03-03T01:13:53.673Z,25.90
2023-03-03T01:14:53.581Z,25.10
2023-03-03T01:15:53.614Z,26.60
2023-03-03T01:16:53.523Z,25.50
2023-03-03T01:17:53.480Z,25.10
2023-03-03T01:18:53.455Z,24.40
2023-03-03T01:19:53.408Z,25.70
2023-03-03T01:20:53.420Z,24.50
2023-03-03T01:21:53.379Z,25.00
2023-03-03T01:22:53.366Z,24.90
2023-03-03T01:23:53.341Z,25.10
2023-03-03T01:24:53.251Z,23.40
2023-03-03T01:25:53.236Z,23.90
2023-03-03T01:26:53.190Z,24.00
2023-03-03T01:27:53.159Z,24.60
2023-03-03T01:28:53.125Z,25.00
2023-03-03T01:29:53.097Z,25.00
2023-03-03T01:30:53.164Z,24.90
2023-03-03T01:31:53.093Z,24.50
2023-03-03T01:32:53.006Z,25.40
2023-03-03T01:33:52.974Z,25.20
2023-03-03T01:34:52.965Z,24.80
2023-03-03T01:35:52.965Z,24.90
2023-03-03T01:36:52.881Z,23.60
2023-03-03T01:37:52.852Z,23.60
2023-03-03T01:38:52.820Z,22.60
2023-03-03T01:39:52.808Z,23.50
2023-03-03T01:40:52.761Z,24.90
2023-03-03T01:41:52.728Z,24.80
2023-03-03T01:42:52.715Z,24.40
2023-03-03T01:43:52.664Z,24.00
2023-03-03T01:44:52.642Z,24.20
2023-03-03T01:45:52.602Z,25.30
2023-03-03T01:46:52.630Z,24.60
2023-03-03T01:47:52.541Z,25.10
2023-03-03T01:48:52.514Z,25.90
2023-03-03T01:49:52.505Z,24.60
2023-03-03T01:50:52.472Z,24.80
2023-03-03T01:51:52.441Z,24.60
2023-03-03T01:52:52.395Z,24.80
2023-03-03T01:53:52.357Z,24.40
2023-03-03T01:54:52.333Z,25.40
2023-03-03T01:55:52.296Z,24.30
2023-03-03T01:56:52.266Z,24.20
2023-03-03T01:57:52.237Z,24.40
2023-03-03T01:58:52.205Z,23.00
2023-03-03T01:59:52.185Z,24.70
2023-03-03T02:00:52.151Z,23.40
2023-03-03T02:01:52.211Z,23.80
2023-03-03T02:02:52.190Z,24.40
2023-03-03T02:03:52.053Z,25.40
2023-03-03T02:04:52.037Z,22.60
2023-03-03T02:05:51.989Z,23.10
2023-03-03T02:06:51.983Z,23.50
2023-03-03T02:07:51.930Z,23.40
2023-03-03T02:08:51.900Z,22.70
2023-03-03T02:09:51.864Z,23.50
2023-03-03T02:10:51.845Z,24.50
2023-03-03T02:11:51.811Z,24.00
2023-03-03T02:12:51.776Z,23.30
2023-03-03T02:13:51.752Z,23.10
2023-03-03T02:14:51.718Z,22.90
2023-03-03T02:15:51.712Z,24.00
2023-03-03T02:16:51.658Z,23.10
2023-03-03T02:17:51.625Z,22.40
2023-03-03T02:18:51.597Z,23.20
2023-03-03T02:19:51.567Z,23.30
2023-03-03T02:20:51.539Z,22.70
2023-03-03T02:21:51.509Z,23.90
2023-03-03T02:22:51.512Z,24.30
2023-03-03T02:23:51.453Z,22.80
2023-03-03T02:24:51.417Z,23.10
2023-03-03T02:25:51.384Z,22.30
2023-03-03T02:26:51.354Z,23.30
2023-03-03T02:27:51.327Z,21.90
2023-03-03T02:28:51.296Z,22.20
2023-03-03T02:29:51.264Z,23.60
2023-03-03T02:30:51.237Z,24.40
2023-03-03T02:31:51.296Z,22.50
2023-03-03T02:32:51.174Z,21.60
2023-03-03T02:33:51.140Z,23.30
2023-03-03T02:34:51.130Z,22.70
2023-03-03T02:35:51.103Z,23.50
2023-03-03T02:36:51.050Z,22.30
2023-03-03T02:37:51.020Z,22.20
2023-03-03T02:38:51.008Z,23.90
2023-03-03T02:39:50.957Z,23.80
2023-03-03T02:40:50.944Z,24.10
2023-03-03T02:41:50.896Z,24.10
2023-03-03T02:42:50.872Z,22.80
2023-03-03T02:43:50.839Z,23.00
2023-03-03T02:44:50.808Z,23.30
2023-03-03T02:45:50.820Z,23.50
2023-03-03T02:46:50.743Z,21.60
2023-03-03T02:47:50.712Z,22.20
2023-03-03T02:48:50.682Z,22.20
2023-03-03T02:49:50.651Z,21.20
2023-03-03T02:50:50.621Z,22.10
2023-03-03T02:51:50.589Z,20.70
2023-03-03T02:52:50.558Z,21.90
2023-03-03T02:53:50.523Z,20.40
2023-03-03T02:54:50.513Z,20.00
2023-03-03T02:55:50.461Z,21.00
2023-03-03T02:56:50.438Z,22.00
2023-03-03T02:57:50.403Z,20.70
2023-03-03T02:58:50.372Z,20.60
2023-03-03T02:59:50.340Z,20.10
2023-03-03T03:00:50.352Z,21.10
2023-03-03T03:01:50.289Z,20.40
2023-03-03T03:02:50.249Z,21.10
2023-03-03T03:03:50.308Z,20.20
2023-03-03T03:04:50.197Z,20.80
2023-03-03T03:05:50.155Z,21.60
2023-03-03T03:06:50.126Z,20.40
2023-03-03T03:07:50.096Z,21.30
2023-03-03T03:08:50.060Z,21.30
2023-03-03T03:09:50.032Z,21.00
2023-03-03T03:10:50.021Z,21.30
2023-03-03T03:11:49.973Z,21.80
2023-03-03T03:12:49.937Z,20.20
2023-03-03T03:13:49.903Z,21.40
2023-03-03T03:14:49.898Z,20.80
2023-03-03T03:15:49.842Z,21.50
2023-03-03T03:16:49.847Z,21.90
2023-03-03T03:17:49.784Z,22.70
2023-03-03T03:18:49.750Z,21.90
2023-03-03T03:19:49.718Z,22.10
2023-03-03T03:20:49.692Z,22.10
2023-03-03T03:21:49.656Z,21.30
2023-03-03T03:22:49.628Z,21.10
2023-03-03T03:23:49.599Z,21.40
2023-03-03T03:24:49.568Z,21.40
2023-03-03T03:25:49.540Z,21.40
2023-03-03T03:26:49.528Z,21.00
2023-03-03T03:27:49.476Z,21.20
2023-03-03T03:28:49.476Z,21.10
2023-03-03T03:29:49.413Z,21.80
2023-03-03T03:30:49.465Z,21.00
2023-03-03T03:31:49.357Z,22.30
2023-03-03T03:32:49.344Z,20.10
2023-03-03T03:33:49.303Z,20.90
2023-03-03T03:34:49.267Z,21.10
2023-03-03T03:35:49.292Z,21.00
2023-03-03T03:36:49.203Z,21.40
2023-03-03T03:37:49.162Z,21.00
2023-03-03T03:38:49.135Z,20.00
2023-03-03T03:39:49.096Z,20.30
2023-03-03T03:40:49.069Z,21.20
2023-03-03T03:41:49.038Z,20.60
2023-03-03T03:42:49.020Z,20.80
2023-03-03T03:43:48.992Z,21.40
2023-03-03T03:44:48.949Z,20.50
2023-03-03T03:45:48.942Z,20.50
2023-03-03T03:46:48.880Z,22.00
2023-03-03T03:47:48.848Z,20.20
2023-03-03T03:48:48.820Z,21.50
2023-03-03T03:49:48.784Z,21.60
2023-03-03T03:50:48.755Z,20.40
2023-03-03T03:51:48.723Z,21.60
2023-03-03T03:52:48.694Z,22.30
2023-03-03T03:53:48.668Z,20.80
2023-03-03T03:54:48.632Z,21.70
2023-03-03T03:55:48.604Z,20.50
2023-03-03T03:56:48.571Z,21.50
2023-03-03T03:57:48.551Z,20.90
2023-03-03T03:58:48.528Z,20.10
2023-03-03T03:59:48.481Z,20.50
2023-03-03T04:00:48.458Z,20.90
2023-03-03T04:01:48.416Z,20.30
2023-03-03T04:02:48.518Z,21.90
2023-03-03T04:03:48.355Z,20.70
2023-03-03T04:04:48.326Z,21.10
2023-03-03T04:05:48.290Z,21.40
2023-03-03T04:06:48.264Z,20.20
2023-03-03T04:07:48.230Z,21.90
2023-03-03T04:08:48.200Z,21.60
2023-03-03T04:09:48.168Z,20.50
2023-03-03T04:10:48.136Z,20.90
2023-03-03T04:11:48.107Z,23.10
2023-03-03T04:12:48.078Z,21.60
2023-03-03T04:13:48.041Z,22.20
2023-03-03T04:14:48.030Z,22.50
2023-03-03T04:15:48.032Z,20.40
2023-03-03T04:16:47.952Z,21.20
2023-03-03T04:17:47.922Z,21.40
2023-03-03T04:18:47.888Z,22.50
2023-03-03T04:19:47.858Z,21.90
2023-03-03T04:20:47.830Z,23.80
2023-03-03T04:21:47.792Z,22.20
2023-03-03T04:22:47.760Z,21.80
2023-03-03T04:23:47.732Z,21.40
2023-03-03T04:24:47.706Z,21.60
2023-03-03T04:25:47.666Z,21.90
2023-03-03T04:26:47.639Z,22.30
2023-03-03T04:27:47.605Z,22.30
2023-03-03T04:28:47.581Z,21.70
2023-03-03T04:29:47.550Z,21.90
2023-03-03T04:30:47.565Z,22.70
2023-03-03T04:31:47.482Z,23.50
2023-03-03T04:32:47.453Z,23.60
2023-03-03T04:33:47.420Z,22.50
2023-03-03T04:34:52.968Z,21.80
2023-03-03T04:35:47.412Z,22.20
2023-03-03T04:36:47.328Z,23.40
2023-03-03T04:37:47.294Z,22.80
2023-03-03T04:38:47.265Z,22.60
2023-03-03T04:39:47.228Z,23.60
2023-03-03T04:40:47.207Z,21.70
2023-03-03T04:41:47.178Z,21.80
2023-03-03T04:42:47.140Z,21.80
2023-03-03T04:43:47.110Z,22.70
2023-03-03T04:44:47.078Z,23.20
2023-03-03T04:45:47.222Z,22.70
2023-03-03T04:46:47.039Z,22.70
2023-03-03T04:47:46.982Z,22.90
2023-03-03T04:48:46.949Z,21.50
2023-03-03T04:49:46.936Z,21.90
2023-03-03T04:50:46.897Z,22.20
2023-03-03T04:51:46.866Z,21.50
2023-03-03T04:52:46.823Z,21.50
2023-03-03T04:53:46.798Z,21.00
2023-03-03T04:54:46.783Z,20.30
2023-03-03T04:55:46.728Z,21.00
2023-03-03T04:56:46.707Z,21.70
2023-03-03T04:57:46.668Z,21.30
2023-03-03T04:58:46.649Z,21.30
2023-03-03T04:59:46.606Z,20.20
2023-03-03T05:00:46.575Z,20.50
2023-03-03T05:01:46.621Z,21.40
2023-03-03T05:02:46.536Z,21.60
2023-03-03T05:03:46.477Z,20.80
2023-03-03T05:04:46.523Z,20.90
2023-03-03T05:05:46.416Z,21.80
2023-03-03T05:06:46.378Z,21.50
2023-03-03T05:07:46.375Z,21.20
2023-03-03T05:08:46.325Z,20.30
2023-03-03T05:09:46.295Z,20.90
2023-03-03T05:10:46.261Z,22.00
2023-03-03T05:11:46.220Z,22.30
2023-03-03T05:12:46.194Z,21.40
2023-03-03T05:13:46.154Z,20.50
2023-03-03T05:14:46.176Z,20.70
2023-03-03T05:15:46.192Z,21.40
2023-03-03T05:16:46.069Z,20.60
2023-03-03T05:17:46.056Z,21.60
2023-03-03T05:18:46.040Z,21.70
2023-03-03T05:19:45.979Z,22.10
2023-03-03T05:20:45.940Z,22.00
2023-03-03T05:21:45.908Z,21.20
2023-03-03T05:22:45.874Z,22.20
2023-03-03T05:23:45.850Z,20.90
2023-03-03T05:24:45.818Z,22.60
2023-03-03T05:25:45.795Z,22.70
2023-03-03T05:26:45.766Z,20.60
2023-03-03T05:27:45.767Z,21.40
2023-03-03T05:28:45.686Z,21.80
2023-03-03T05:29:45.651Z,21.90
2023-03-03T05:30:45.623Z,21.00
2023-03-03T05:31:45.932Z,21.70
2023-03-03T05:32:45.559Z,21.50
2023-03-03T05:33:45.527Z,21.50
2023-03-03T05:34:45.515Z,21.90
2023-03-03T05:35:45.537Z,22.90
2023-03-03T05:36:45.436Z,22.10
2023-03-03T05:37:45.400Z,22.60
2023-03-03T05:38:45.372Z,22.90
2023-03-03T05:39:45.339Z,23.00
2023-03-03T05:40:45.306Z,22.70
2023-03-03T05:41:45.278Z,22.10
2023-03-03T05:42:45.334Z,22.60
2023-03-03T05:43:45.211Z,21.30
2023-03-03T05:44:45.185Z,22.30
2023-03-03T05:45:45.148Z,23.60
2023-03-03T05:46:45.179Z,23.10
2023-03-03T05:47:45.087Z,23.20
2023-03-03T05:48:45.062Z,22.80
2023-03-03T05:49:45.027Z,21.50
2023-03-03T05:50:45.014Z,20.90
2023-03-03T05:51:44.979Z,20.80
2023-03-03T05:52:44.931Z,22.10
2023-03-03T05:53:44.900Z,21.50
2023-03-03T05:54:44.874Z,22.00
2023-03-03T05:55:44.841Z,21.20
2023-03-03T05:56:44.809Z,20.30
2023-03-03T05:57:44.778Z,22.30
2023-03-03T05:58:44.750Z,20.50
2023-03-03T05:59:44.716Z,20.10
2023-03-03T06:00:44.683Z,20.80
2023-03-03T06:01:44.734Z,21.00
2023-03-03T06:02:44.683Z,23.20
2023-03-03T06:03:44.589Z,21.80
2023-03-03T06:04:44.558Z,21.60
2023-03-03T06:05:44.562Z,21.70
2023-03-03T06:06:44.552Z,21.30
2023-03-03T06:07:44.470Z,19.60
2023-03-03T06:08:44.432Z,19.50
2023-03-03T06:09:44.402Z,21.90
2023-03-03T06:10:44.377Z,21.80
2023-03-03T06:11:44.343Z,20.70
2023-03-03T06:12:44.310Z,19.50
2023-03-03T06:13:44.278Z,20.00
2023-03-03T06:14:44.244Z,20.30
2023-03-03T06:15:44.274Z,19.90
2023-03-03T06:16:44.268Z,20.50
2023-03-03T06:17:44.153Z,21.90
2023-03-03T06:18:44.117Z,20.50
2023-03-03T06:19:44.091Z,20.70
2023-03-03T06:20:44.057Z,19.80
2023-03-03T06:21:44.026Z,19.30
2023-03-03T06:22:44.010Z,20.50
2023-03-03T06:23:43.964Z,19.40
2023-03-03T06:24:43.929Z,19.90
2023-03-03T06:25:43.902Z,19.60
2023-03-03T06:26:43.870Z,19.60
2023-03-03T06:27:43.835Z,19.50
2023-03-03T06:28:43.802Z,19.90
2023-03-03T06:29:43.771Z,18.90
2023-03-03T06:30:43.756Z,18.80
2023-03-03T06:31:43.806Z,19.40
2023-03-03T06:32:43.732Z,18.00
2023-03-03T06:33:43.643Z,18.70
2023-03-03T06:34:43.609Z,19.10
2023-03-03T06:35:43.589Z,19.00
2023-03-03T06:36:43.547Z,18.60
2023-03-03T06:37:43.517Z,18.70
2023-03-03T06:38:43.505Z,18.30
2023-03-03T06:39:43.451Z,18.80
2023-03-03T06:40:43.422Z,18.70
2023-03-03T06:41:43.388Z,17.80
2023-03-03T06:42:43.357Z,18.30
2023-03-03T06:43:43.324Z,18.60
2023-03-03T06:44:43.302Z,18.60
2023-03-03T06:45:43.388Z,19.00
2023-03-03T06:46:43.233Z,18.90
2023-03-03T06:47:43.208Z,17.80
2023-03-03T06:48:43.170Z,18.70
2023-03-03T06:49:43.138Z,19.40
2023-03-03T06:50:43.105Z,20.00
2023-03-03T06:51:43.073Z,20.10
2023-03-03T06:52:43.042Z,19.30
2023-03-03T06:53:43.014Z,20.40
2023-03-03T06:54:42.994Z,19.70
2023-03-03T06:55:42.945Z,19.30
2023-03-03T06:56:42.936Z,20.60
2023-03-03T06:57:42.889Z,19.90
2023-03-03T06:58:42.848Z,18.80
2023-03-03T06:59:42.834Z,19.30
2023-03-03T07:00:42.801Z,18.60
2023-03-03T07:01:42.760Z,18.80
2023-03-03T07:02:42.740Z,18.60
2023-03-03T07:03:42.697Z,18.30
2023-03-03T07:04:42.666Z,18.40
2023-03-03T07:05:42.636Z,18.00
2023-03-03T07:06:42.605Z,17.70
2023-03-03T07:07:42.578Z,19.00
2023-03-03T07:08:42.552Z,19.50
2023-03-03T07:09:42.517Z,18.90
2023-03-03T07:10:42.497Z,17.70
2023-03-03T07:11:42.450Z,18.10
2023-03-03T07:12:42.419Z,18.40
2023-03-03T07:13:42.393Z,17.60
2023-03-03T07:14:42.372Z,18.30
2023-03-03T07:15:42.333Z,18.30
2023-03-03T07:16:42.391Z,17.10
2023-03-03T07:17:42.264Z,18.20
2023-03-03T07:18:42.236Z,18.00
2023-03-03T07:19:42.203Z,17.80
2023-03-03T07:20:42.169Z,19.00
2023-03-03T07:21:42.148Z,18.60
2023-03-03T07:22:42.106Z,18.80
2023-03-03T07:23:42.077Z,19.10
2023-03-03T07:24:42.053Z,19.30
2023-03-03T07:25:42.013Z,19.20
2023-03-03T07:26:41.999Z,18.40
2023-03-03T07:27:41.951Z,20.40
2023-03-03T07:28:41.920Z,18.90
2023-03-03T07:29:41.893Z,19.80
2023-03-03T07:30:41.892Z,20.10
2023-03-03T07:31:43.045Z,18.70
2023-03-03T07:32:41.801Z,18.80
2023-03-03T07:33:41.761Z,19.10
2023-03-03T07:34:41.728Z,18.20
2023-03-03T07:35:41.752Z,20.60
2023-03-03T07:36:41.666Z,19.00
2023-03-03T07:37:41.639Z,18.60
2023-03-03T07:38:41.603Z,18.30
2023-03-03T07:39:41.575Z,19.20
2023-03-03T07:40:41.613Z,18.30
2023-03-03T07:41:41.512Z,19.30
2023-03-03T07:42:41.519Z,18.80
2023-03-03T07:43:41.445Z,18.50
2023-03-03T07:44:41.422Z,19.10
2023-03-03T07:45:41.426Z,16.90
2023-03-03T07:46:41.381Z,19.90
2023-03-03T07:47:41.325Z,18.40
2023-03-03T07:48:41.287Z,19.60
2023-03-03T07:49:41.259Z,18.70
2023-03-03T07:50:41.319Z,17.70
2023-03-03T07:51:41.198Z,18.00
2023-03-03T07:52:41.163Z,19.70
2023-03-03T07:53:41.138Z,19.00
2023-03-03T07:54:41.101Z,18.30
2023-03-03T07:55:41.076Z,19.70
2023-03-03T07:56:41.042Z,19.80
2023-03-03T07:57:41.016Z,18.30
2023-03-03T07:58:40.994Z,18.20
2023-03-03T07:59:40.946Z,19.60
2023-03-03T08:00:40.935Z,18.20
2023-03-03T08:01:40.891Z,18.90
2023-03-03T08:02:40.880Z,17.90
2023-03-03T08:03:40.819Z,18.80
2023-03-03T08:04:40.948Z,18.20
2023-03-03T08:05:40.758Z,17.80
2023-03-03T08:06:40.724Z,18.20
2023-03-03T08:07:40.695Z,18.40
2023-03-03T08:08:40.661Z,19.10
2023-03-03T08:09:40.650Z,18.50
2023-03-03T08:10:42.451Z,18.60
2023-03-03T08:11:40.566Z,17.20
2023-03-03T08:12:40.528Z,17.50
2023-03-03T08:13:40.499Z,17.90
2023-03-03T08:14:40.480Z,17.30
2023-03-03T08:15:40.526Z,17.10
2023-03-03T08:16:40.400Z,19.30
2023-03-03T08:17:40.376Z,16.90
2023-03-03T08:18:40.347Z,17.50
2023-03-03T08:19:40.712Z,17.00
2023-03-03T08:20:40.272Z,16.30
2023-03-03T08:21:40.240Z,16.20
2023-03-03T08:22:40.207Z,15.60
2023-03-03T08:23:40.177Z,16.80
2023-03-03T08:24:40.152Z,17.10
2023-03-03T08:25:40.116Z,17.40
2023-03-03T08:26:40.082Z,16.90
2023-03-03T08:27:40.061Z,15.90
2023-03-03T08:28:40.020Z,16.30
2023-03-03T08:29:39.984Z,16.30
2023-03-03T08:30:39.976Z,17.10
2023-03-03T08:31:41.987Z,15.90
2023-03-03T08:32:40.025Z,15.90
2023-03-03T08:33:39.861Z,16.60
2023-03-03T08:34:39.837Z,16.60
2023-03-03T08:35:39.888Z,16.00
2023-03-03T08:36:39.766Z,16.20
2023-03-03T08:37:39.733Z,16.30
2023-03-03T08:38:39.703Z,16.90
2023-03-03T08:39:39.672Z,17.20
2023-03-03T08:40:39.638Z,17.00
2023-03-03T08:41:39.607Z,16.80
2023-03-03T08:42:39.572Z,16.30
2023-03-03T08:43:39.562Z,16.40
2023-03-03T08:44:39.514Z,16.60
2023-03-03T08:45:39.482Z,15.90
2023-03-03T08:46:39.510Z,15.60
2023-03-03T08:47:39.420Z,16.50
2023-03-03T08:48:39.392Z,16.30
2023-03-03T08:49:39.361Z,16.00
2023-03-03T08:50:39.322Z,15.20
2023-03-03T08:51:39.298Z,16.40
2023-03-03T08:52:39.262Z,16.20
2023-03-03T08:53:39.235Z,16.30
2023-03-03T08:54:39.199Z,17.30
2023-03-03T08:55:39.176Z,15.60
2023-03-03T08:56:39.138Z,16.00
2023-03-03T08:57:39.107Z,16.30
2023-03-03T08:58:40.770Z,15.90
2023-03-03T08:59:39.067Z,15.90
2023-03-03T09:00:39.017Z,16.30
2023-03-03T09:01:39.014Z,16.30
2023-03-03T09:02:38.971Z,15.80
2023-03-03T09:03:38.922Z,15.50
2023-03-03T09:04:38.985Z,16.40
2023-03-03T09:05:38.861Z,15.00
2023-03-03T09:06:38.828Z,15.90
2023-03-03T09:07:38.798Z,14.70
2023-03-03T09:08:38.771Z,15.40
2023-03-03T09:09:38.745Z,16.40
2023-03-03T09:10:38.703Z,16.80
2023-03-03T09:11:38.672Z,15.40
2023-03-03T09:12:38.647Z,15.50
2023-03-03T09:13:38.616Z,14.90
2023-03-03T09:14:38.577Z,14.40
2023-03-03T09:15:38.550Z,16.60
2023-03-03T09:16:38.520Z,15.70
2023-03-03T09:17:38.488Z,15.50
2023-03-03T09:18:38.497Z,15.30
2023-03-03T09:19:38.422Z,16.80
2023-03-03T09:20:38.393Z,16.30
2023-03-03T09:21:38.363Z,16.00
2023-03-03T09:22:38.328Z,15.80
2023-03-03T09:23:38.301Z,16.10
2023-03-03T09:24:38.281Z,15.70
2023-03-03T09:25:39.763Z,15.50
2023-03-03T09:26:38.203Z,17.00
2023-03-03T09:27:38.181Z,16.70
2023-03-03T09:28:38.153Z,17.10
2023-03-03T09:29:38.108Z,16.30
2023-03-03T09:30:38.211Z,16.00
2023-03-03T09:31:38.218Z,16.10
2023-03-03T09:32:38.059Z,15.70
2023-03-03T09:33:37.988Z,15.60
2023-03-03T09:34:37.976Z,17.00
2023-03-03T09:35:38.051Z,16.50
2023-03-03T09:36:37.901Z,15.80
2023-03-03T09:37:37.863Z,16.50
2023-03-03T09:38:37.827Z,16.60
2023-03-03T09:39:37.810Z,16.70
2023-03-03T09:40:37.765Z,16.50
2023-03-03T09:41:37.747Z,16.00
2023-03-03T09:42:37.717Z,15.70
2023-03-03T09:43:38.138Z,16.10
2023-03-03T09:44:37.660Z,16.20
2023-03-03T09:45:37.656Z,16.70
2023-03-03T09:46:37.629Z,16.10
2023-03-03T09:47:37.550Z,16.30
2023-03-03T09:48:37.514Z,16.00
2023-03-03T09:49:37.492Z,15.70
2023-03-03T09:50:37.480Z,15.60
2023-03-03T09:51:37.426Z,16.50
2023-03-03T09:52:37.397Z,16.30
2023-03-03T09:53:37.363Z,15.60
2023-03-03T09:54:37.329Z,16.30
2023-03-03T09:55:37.363Z,16.10
2023-03-03T09:56:37.271Z,16.30
2023-03-03T09:57:37.247Z,15.10
2023-03-03T09:58:37.212Z,15.50
2023-03-03T09:59:37.179Z,16.20
2023-03-03T10:00:37.147Z,16.50
2023-03-03T10:01:37.118Z,15.70
2023-03-03T10:02:37.161Z,16.50
2023-03-03T10:03:37.199Z,15.20
2023-03-03T10:04:37.021Z,15.20
2023-03-03T10:05:36.991Z,15.50
2023-03-03T10:06:37.050Z,15.80
2023-03-03T10:07:36.930Z,15.40
2023-03-03T10:08:36.899Z,15.30
2023-03-03T10:09:36.879Z,15.30
2023-03-03T10:10:36.835Z,15.70
2023-03-03T10:11:36.808Z,16.50
2023-03-03T10:12:36.778Z,16.40
2023-03-03T10:13:36.746Z,16.30
2023-03-03T10:14:36.715Z,16.90
2023-03-03T10:15:36.688Z,17.50
2023-03-03T10:16:36.693Z,16.70
2023-03-03T10:17:36.619Z,16.40
2023-03-03T10:18:36.606Z,16.10
2023-03-03T10:19:36.568Z,15.90
2023-03-03T10:20:49.202Z,15.40
2023-03-03T10:21:36.500Z,16.40
2023-03-03T10:22:36.489Z,16.30
2023-03-03T10:23:36.442Z,17.40
2023-03-03T10:24:36.409Z,17.20
2023-03-03T10:25:36.382Z,17.20
2023-03-03T10:26:44.642Z,17.40
2023-03-03T10:27:36.322Z,17.60
2023-03-03T10:28:36.288Z,16.70
2023-03-03T10:29:36.255Z,16.40
2023-03-03T10:30:42.666Z,16.40
2023-03-03T10:31:36.233Z,17.00
2023-03-03T10:32:36.405Z,17.20
2023-03-03T10:33:36.307Z,17.70
2023-03-03T10:34:36.106Z,18.20
2023-03-03T10:35:36.181Z,18.10
2023-03-03T10:36:36.055Z,17.70
2023-03-03T10:37:36.062Z,17.90
2023-03-03T10:38:36.004Z,18.00
2023-03-03T10:39:35.952Z,19.40
2023-03-03T10:40:35.929Z,18.30
2023-03-03T10:41:35.895Z,19.10
2023-03-03T10:42:35.867Z,18.40
2023-03-03T10:43:35.831Z,17.00
2023-03-03T10:44:35.804Z,18.10
2023-03-03T10:45:35.821Z,17.70
2023-03-03T10:46:35.754Z,18.50
2023-03-03T10:47:35.740Z,18.90
2023-03-03T10:48:36.248Z,18.70
2023-03-03T10:49:35.650Z,18.00
2023-03-03T10:50:35.623Z,19.20
2023-03-03T10:51:35.600Z,17.80
2023-03-03T10:52:35.563Z,17.20
2023-03-03T10:53:35.531Z,17.90
2023-03-03T10:54:35.526Z,19.30
2023-03-03T10:55:38.309Z,17.20
2023-03-03T10:56:51.825Z,17.80
2023-03-03T10:57:35.412Z,17.20
2023-03-03T10:58:35.443Z,16.90
2023-03-03T10:59:35.354Z,16.70
2023-03-03T11:00:35.318Z,16.90
2023-03-03T11:01:35.310Z,16.40
2023-03-03T11:02:35.263Z,16.50
2023-03-03T11:03:35.242Z,16.50
2023-03-03T11:04:35.267Z,16.70
2023-03-03T11:05:35.175Z,16.90
2023-03-03T11:06:35.148Z,17.50
2023-03-03T11:07:35.131Z,18.40
2023-03-03T11:08:35.103Z,18.40
2023-03-03T11:09:35.059Z,17.20
2023-03-03T11:10:35.037Z,17.10
2023-03-03T11:11:34.991Z,17.90
2023-03-03T11:12:34.961Z,18.40
2023-03-03T11:13:34.932Z,17.00
2023-03-03T11:14:34.904Z,17.60
2023-03-03T11:15:34.865Z,17.10
2023-03-03T11:16:34.862Z,17.40
2023-03-03T11:17:34.808Z,17.10
2023-03-03T11:18:34.776Z,16.50
2023-03-03T11:19:34.752Z,17.70
2023-03-03T11:20:34.717Z,18.10
2023-03-03T11:21:34.691Z,17.80
2023-03-03T11:22:34.655Z,18.20
2023-03-03T11:23:34.639Z,16.50
2023-03-03T11:24:34.602Z,16.80
2023-03-03T11:25:34.578Z,16.30
2023-03-03T11:26:34.560Z,17.30
2023-03-03T11:27:34.513Z,16.40
2023-03-03T11:28:34.476Z,16.50
2023-03-03T11:29:34.446Z,16.10
2023-03-03T11:30:34.523Z,15.90
2023-03-03T11:31:34.386Z,16.80
2023-03-03T11:32:34.450Z,15.90
2023-03-03T11:33:34.326Z,15.80
2023-03-03T11:34:34.299Z,16.40
2023-03-03T11:35:34.314Z,16.20
2023-03-03T11:36:35.147Z,15.60
2023-03-03T11:37:34.202Z,16.10
2023-03-03T11:38:34.180Z,15.90
2023-03-03T11:39:34.150Z,15.00
2023-03-03T11:40:34.118Z,15.10
2023-03-03T11:41:34.087Z,16.00
2023-03-03T11:42:34.088Z,16.00
2023-03-03T11:43:37.337Z,13.90
2023-03-03T11:44:34.013Z,15.10
2023-03-03T11:45:34.000Z,16.30
2023-03-03T11:46:33.937Z,15.50
2023-03-03T11:47:33.907Z,14.30
2023-03-03T11:48:33.880Z,16.40
2023-03-03T11:49:33.847Z,16.30
2023-03-03T11:50:33.818Z,16.30
2023-03-03T11:51:33.794Z,14.90
2023-03-03T11:52:33.758Z,16.40
2023-03-03T11:53:33.739Z,14.80
2023-03-03T11:54:33.699Z,15.90
2023-03-03T11:55:33.678Z,14.60
2023-03-03T11:56:33.641Z,16.20
2023-03-03T11:57:33.607Z,16.20
2023-03-03T11:58:33.606Z,15.20
2023-03-03T11:59:33.547Z,16.30
2023-03-03T12:00:33.520Z,16.00
2023-03-03T12:01:33.486Z,15.40
2023-03-03T12:02:33.471Z,15.30
2023-03-03T12:03:33.427Z,15.80
2023-03-03T12:04:33.403Z,15.90
2023-03-03T12:05:33.423Z,14.00
2023-03-03T12:06:33.338Z,15.30
2023-03-03T12:07:33.319Z,15.70
2023-03-03T12:08:33.281Z,15.70
2023-03-03T12:09:33.253Z,16.30
2023-03-03T12:10:33.226Z,16.30
2023-03-03T12:11:33.192Z,16.50
2023-03-03T12:12:33.164Z,15.40
2023-03-03T12:13:33.138Z,16.20
2023-03-03T12:14:33.122Z,16.00
2023-03-03T12:15:33.073Z,16.60
2023-03-03T12:16:33.041Z,16.10
2023-03-03T12:17:33.011Z,15.90
2023-03-03T12:18:32.983Z,16.20
2023-03-03T12:19:32.954Z,16.40
2023-03-03T12:20:32.938Z,15.80
2023-03-03T12:21:32.919Z,15.00
2023-03-03T12:22:32.891Z,17.30
2023-03-03T12:23:32.859Z,16.90
2023-03-03T12:24:32.838Z,15.50
2023-03-03T12:25:32.799Z,16.50
2023-03-03T12:26:32.769Z,15.80
2023-03-03T12:27:32.746Z,15.80
2023-03-03T12:28:32.716Z,16.00
2023-03-03T12:29:32.682Z,16.00
2023-03-03T12:30:32.696Z,14.80
2023-03-03T12:31:32.679Z,15.00
2023-03-03T12:32:32.776Z,15.90
2023-03-03T12:33:32.569Z,15.80
2023-03-03T12:34:32.545Z,15.60
2023-03-03T12:35:32.543Z,16.00
2023-03-03T12:36:32.489Z,15.30
2023-03-03T12:37:32.449Z,15.30
2023-03-03T12:38:32.418Z,15.80
2023-03-03T12:39:35.312Z,15.90
2023-03-03T12:40:32.372Z,16.20
2023-03-03T12:41:32.337Z,15.90
2023-03-03T12:42:32.308Z,15.30
2023-03-03T12:43:32.271Z,15.20
2023-03-03T12:44:32.244Z,15.30
2023-03-03T12:45:32.214Z,15.20
2023-03-03T12:46:32.243Z,15.70
2023-03-03T12:47:32.167Z,15.30
2023-03-03T12:48:32.130Z,14.40
2023-03-03T12:49:42.418Z,13.90
2023-03-03T12:50:32.066Z,14.80
2023-03-03T12:51:32.036Z,14.60
2023-03-03T12:52:32.007Z,14.60